Santa Vitoria, Brazil
Current Conditions -  °F | °C
As of 2:00 PM on Wednesday 26 Nov 2014 (Local Time) from SBUL Reporting Station
Scattered Clouds Scattered Clouds  
Wind Chill: 77°   Ceiling: Unl
Heat Index: 79°   Visibility: 6mi
Dew Point: 64°   Wind: 13mph
Humidity: 65%   Direction: 330°NNW
Pressure: 29.94"   Gusts: NA
Location:  18.84°S, 50.12°W
Report Text: SBUL 261600Z 33011KT 9999 SCT020 FEW040TCU 25/18 Q1014
Loading
Personal Weather Stations






























Interactive Weather Map New forecast layout! Learn more

10-Day Weather Forecast

Advertisements
Track Severe Weather on mobile